createdAt,value
2023-02-12T00:00:45.001Z,1.30
2023-02-12T00:06:08.484Z,1.10
2023-02-12T00:11:30.368Z,0.90
2023-02-12T00:16:52.197Z,1.52
2023-02-12T00:22:14.068Z,0.90
2023-02-12T00:27:36.156Z,1.60
2023-02-12T00:32:58.024Z,1.25
2023-02-12T00:38:19.906Z,1.27
2023-02-12T00:43:41.986Z,0.68
2023-02-12T00:49:03.898Z,0.60
2023-02-12T00:54:25.741Z,0.55
2023-02-12T00:59:47.598Z,0.80
2023-02-12T01:05:09.592Z,0.60
2023-02-12T01:10:31.984Z,0.63
2023-02-12T01:16:07.059Z,1.17
2023-02-12T01:21:31.821Z,0.50
2023-02-12T01:26:53.648Z,0.68
2023-02-12T01:32:15.535Z,0.85
2023-02-12T01:37:38.642Z,0.73
2023-02-12T01:43:02.030Z,0.70
2023-02-12T01:48:27.230Z,0.90
2023-02-12T01:53:53.548Z,0.80
2023-02-12T01:59:16.964Z,0.63
2023-02-12T02:04:43.961Z,0.50
2023-02-12T02:10:06.694Z,0.73
2023-02-12T02:15:31.061Z,1.25
2023-02-12T02:21:13.049Z,1.13
2023-02-12T02:26:43.677Z,0.88
2023-02-12T02:32:15.310Z,0.80
2023-02-12T02:37:45.678Z,0.65
2023-02-12T02:43:15.366Z,0.50
2023-02-12T02:48:43.881Z,0.50
2023-02-12T02:54:13.494Z,0.45
2023-02-12T02:59:43.324Z,0.45
2023-02-12T03:05:19.711Z,0.88
2023-02-12T03:16:12.870Z,0.55
2023-02-12T03:21:44.667Z,0.50
2023-02-12T03:27:11.726Z,0.60
2023-02-12T03:33:01.344Z,0.52
2023-02-12T03:38:41.469Z,0.50
2023-02-12T03:44:16.209Z,0.60
2023-02-12T03:50:12.047Z,0.65
2023-02-12T03:55:40.420Z,0.98
2023-02-12T04:01:03.981Z,0.70
2023-02-12T04:06:29.009Z,0.60
2023-02-12T04:12:07.225Z,0.55
2023-02-12T04:17:56.855Z,0.95
2023-02-12T04:23:33.877Z,0.70
2023-02-12T04:29:11.309Z,0.88
2023-02-12T04:34:39.933Z,0.75
2023-02-12T04:40:06.235Z,0.60
2023-02-12T04:45:31.003Z,0.52
2023-02-12T04:50:52.864Z,0.60
2023-02-12T04:56:15.263Z,0.52
2023-02-12T05:01:38.769Z,1.15
2023-02-12T05:07:00.690Z,0.70
2023-02-12T05:12:22.590Z,0.50
2023-02-12T05:17:44.461Z,0.60
2023-02-12T05:23:06.307Z,0.70
2023-02-12T05:28:29.080Z,0.90
2023-02-12T05:33:51.193Z,0.80
2023-02-12T05:39:13.022Z,0.90
2023-02-12T05:44:34.893Z,0.73
2023-02-12T05:49:56.754Z,0.85
2023-02-12T05:55:18.718Z,0.90
2023-02-12T06:00:40.754Z,0.90
2023-02-12T06:06:02.600Z,1.42
2023-02-12T06:11:24.919Z,0.80
2023-02-12T06:16:48.853Z,1.10
2023-02-12T06:22:10.722Z,1.00
2023-02-12T06:27:32.550Z,1.00
2023-02-12T06:32:54.451Z,1.30
2023-02-12T06:38:16.489Z,0.88
2023-02-12T06:43:38.417Z,1.38
2023-02-12T06:49:01.014Z,1.35
2023-02-12T06:54:22.872Z,1.40
2023-02-12T06:59:44.714Z,0.98
2023-02-12T07:05:06.658Z,1.05
2023-02-12T07:10:28.494Z,1.10
2023-02-12T07:15:50.464Z,0.80
2023-02-12T07:21:14.377Z,0.80
2023-02-12T07:26:36.234Z,0.80
2023-02-12T07:31:58.165Z,0.80
2023-02-12T07:37:20.095Z,0.90
2023-02-12T07:42:41.960Z,1.40
2023-02-12T07:48:03.984Z,0.88
2023-02-12T07:53:25.872Z,1.05
2023-02-12T07:58:50.096Z,1.08
2023-02-12T08:04:14.643Z,0.88
2023-02-12T08:09:36.525Z,0.70
2023-02-12T08:14:58.362Z,0.70
2023-02-12T08:20:20.199Z,0.98
2023-02-12T08:25:42.056Z,0.77
2023-02-12T08:31:06.916Z,0.60
2023-02-12T08:36:38.229Z,1.30
2023-02-12T08:42:00.565Z,1.00
2023-02-12T08:47:22.486Z,4.18
2023-02-12T08:52:44.315Z,0.80
2023-02-12T08:58:06.214Z,0.90
2023-02-12T09:03:28.376Z,1.15
2023-02-12T09:08:51.560Z,1.05
2023-02-12T09:14:15.524Z,1.17
2023-02-12T09:19:37.381Z,1.15
2023-02-12T09:24:59.239Z,1.38
2023-02-12T09:30:21.315Z,1.00
2023-02-12T09:35:43.357Z,1.38
2023-02-12T09:41:20.360Z,1.40
2023-02-12T09:47:12.515Z,1.38
2023-02-12T09:52:35.555Z,1.60
2023-02-12T09:57:57.765Z,2.20
2023-02-12T10:03:19.624Z,2.20
2023-02-12T10:08:53.720Z,2.53
2023-02-12T10:14:52.969Z,2.03
2023-02-12T10:20:31.652Z,2.63
2023-02-12T10:25:59.878Z,3.03
2023-02-12T10:31:34.229Z,2.30
2023-02-12T10:37:10.373Z,2.75
2023-02-12T10:42:36.762Z,2.40
2023-02-12T10:48:10.200Z,2.70
2023-02-12T10:53:34.616Z,3.13
2023-02-12T10:58:59.656Z,2.85
2023-02-12T11:04:28.319Z,2.80
2023-02-12T11:09:52.547Z,2.63
2023-02-12T11:15:17.694Z,3.00
2023-02-12T11:20:51.048Z,3.10
2023-02-12T11:26:18.640Z,2.25
2023-02-12T11:31:40.863Z,3.20
2023-02-12T11:37:03.452Z,2.80
2023-02-12T11:42:26.617Z,2.63
2023-02-12T11:47:51.137Z,3.53
2023-02-12T11:53:22.406Z,3.45
2023-02-12T11:58:46.572Z,3.00
2023-02-12T12:04:16.399Z,3.25
2023-02-12T12:09:49.693Z,4.07
2023-02-12T12:15:25.126Z,3.15
2023-02-12T12:20:56.531Z,3.65
2023-02-12T12:26:25.724Z,6.78
2023-02-12T12:31:57.825Z,3.30
2023-02-12T12:37:31.101Z,3.00
2023-02-12T12:43:22.104Z,3.15
2023-02-12T12:48:55.237Z,3.20
2023-02-12T12:54:48.121Z,3.58
2023-02-12T13:00:24.280Z,3.38
2023-02-12T13:06:06.449Z,2.95
2023-02-12T13:12:05.640Z,3.10
2023-02-12T13:17:42.742Z,3.38
2023-02-12T13:23:13.508Z,3.40
2023-02-12T13:28:42.292Z,3.55
2023-02-12T13:34:07.860Z,4.20
2023-02-12T13:39:34.812Z,4.25
2023-02-12T13:45:24.249Z,4.53
2023-02-12T13:51:24.240Z,4.30
2023-02-12T13:56:53.803Z,4.43
2023-02-12T14:02:18.683Z,4.32
2023-02-12T14:08:05.212Z,4.45
2023-02-12T14:13:27.153Z,4.03
2023-02-12T14:18:48.996Z,4.30
2023-02-12T14:24:35.974Z,4.35
2023-02-12T14:30:03.808Z,4.15
2023-02-12T14:35:49.137Z,4.20
2023-02-12T14:41:37.279Z,4.97
2023-02-12T14:47:01.555Z,4.53
2023-02-12T14:52:27.340Z,4.97
2023-02-12T14:57:50.051Z,4.70
2023-02-12T15:03:14.583Z,5.10
2023-02-12T15:09:03.095Z,5.47
2023-02-12T15:14:30.904Z,4.95
2023-02-12T15:20:07.687Z,5.00
2023-02-12T15:25:33.422Z,5.25
2023-02-12T15:30:56.959Z,4.97
2023-02-12T15:36:22.548Z,5.88
2023-02-12T15:41:44.479Z,6.20
2023-02-12T15:47:14.888Z,7.15
2023-02-12T15:52:39.640Z,7.90
2023-02-12T15:58:02.122Z,8.50
2023-02-12T16:03:38.279Z,8.88
2023-02-12T16:09:29.826Z,8.82
2023-02-12T16:14:54.498Z,8.50
2023-02-12T16:20:16.364Z,8.93
2023-02-12T16:25:38.340Z,8.38
2023-02-12T16:31:10.128Z,9.18
2023-02-12T16:36:32.464Z,8.60
2023-02-12T16:41:57.188Z,7.85
2023-02-12T16:47:24.686Z,8.18
2023-02-12T16:52:46.577Z,8.45
2023-02-12T16:58:09.026Z,8.68
2023-02-12T17:03:31.529Z,10.10
2023-02-12T17:08:53.634Z,14.15
2023-02-12T17:14:18.325Z,10.60
2023-02-12T17:19:40.464Z,10.27
2023-02-12T17:25:02.357Z,10.43
2023-02-12T17:30:24.473Z,9.68
2023-02-12T17:35:47.211Z,9.82
2023-02-12T17:41:11.015Z,9.20
2023-02-12T17:46:33.247Z,9.57
2023-02-12T17:51:55.151Z,8.60
2023-02-12T17:57:17.370Z,9.20
2023-02-12T18:02:39.580Z,9.25
2023-02-12T18:08:01.917Z,9.20
2023-02-12T18:13:24.666Z,9.10
2023-02-12T18:18:46.621Z,10.02
2023-02-12T18:24:08.885Z,9.40
2023-02-12T18:29:31.055Z,10.52
2023-02-12T18:34:53.037Z,12.52
2023-02-12T18:40:15.724Z,11.02
2023-02-12T18:45:39.878Z,10.55
2023-02-12T18:51:03.337Z,10.75
2023-02-12T18:56:25.204Z,11.23
2023-02-12T19:01:47.653Z,11.77
2023-02-12T19:07:09.653Z,12.90
2023-02-12T19:12:33.450Z,12.80
2023-02-12T19:18:01.820Z,14.60
2023-02-12T19:23:24.095Z,12.80
2023-02-12T19:28:46.576Z,14.45
2023-02-12T19:34:13.474Z,13.65
2023-02-12T19:39:35.448Z,12.77
2023-02-12T19:44:57.299Z,13.65
2023-02-12T19:50:19.294Z,13.27
2023-02-12T19:55:41.652Z,12.80
2023-02-12T20:01:15.407Z,12.75
2023-02-12T20:06:38.627Z,12.02
2023-02-12T20:12:00.740Z,12.70
2023-02-12T20:17:23.102Z,12.60
2023-02-12T20:22:45.164Z,12.32
2023-02-12T20:28:07.147Z,11.73
2023-02-12T20:33:29.077Z,12.13
2023-02-12T20:38:54.016Z,12.18
2023-02-12T20:44:18.956Z,11.38
2023-02-12T20:49:40.942Z,11.77
2023-02-12T20:55:03.087Z,12.07
2023-02-12T21:00:25.061Z,13.07
2023-02-12T21:05:47.022Z,13.65
2023-02-12T21:11:14.868Z,13.30
2023-02-12T21:16:39.271Z,13.13
2023-02-12T21:22:01.157Z,12.63
2023-02-12T21:27:23.201Z,13.35
2023-02-12T21:32:45.057Z,13.23
2023-02-12T21:38:06.959Z,14.63
2023-02-12T21:43:29.113Z,14.63
2023-02-12T21:48:51.302Z,15.38
2023-02-12T21:54:15.375Z,15.35
2023-02-12T21:59:37.270Z,16.38
2023-02-12T22:04:59.111Z,16.30
2023-02-12T22:10:21.000Z,16.25
2023-02-12T22:15:42.891Z,16.23
2023-02-12T22:21:06.578Z,16.98
2023-02-12T22:26:30.330Z,17.05
2023-02-12T22:31:52.372Z,18.35
2023-02-12T22:37:14.292Z,18.27
2023-02-12T22:42:36.569Z,18.95
2023-02-12T22:47:58.496Z,18.73
2023-02-12T22:53:21.039Z,18.58
2023-02-12T22:58:42.876Z,19.88
2023-02-12T23:04:04.895Z,20.70
2023-02-12T23:09:26.935Z,19.98
2023-02-12T23:14:48.793Z,19.75
2023-02-12T23:20:13.924Z,20.17
2023-02-12T23:25:35.839Z,18.83
2023-02-12T23:30:58.596Z,17.63
2023-02-12T23:36:20.873Z,17.58
2023-02-12T23:41:42.781Z,19.42
2023-02-12T23:47:05.257Z,17.33
2023-02-12T23:52:27.198Z,19.17
2023-02-12T23:57:49.298Z,18.35
